createdAt,value
2022-12-18T00:00:08.508Z,97460.53
2022-12-18T00:02:37.012Z,97464.47
2022-12-18T00:05:06.011Z,97466.63
2022-12-18T00:07:34.235Z,97462.81
2022-12-18T00:10:02.479Z,97467.84
2022-12-18T00:12:30.708Z,97473.00
2022-12-18T00:14:58.932Z,97476.69
2022-12-18T00:17:28.515Z,97473.94
2022-12-18T00:19:56.758Z,97477.25
2022-12-18T00:22:25.240Z,97474.69
2022-12-18T00:24:53.561Z,97472.81
2022-12-18T00:27:21.811Z,97470.44
2022-12-18T00:29:50.187Z,97478.34
2022-12-18T00:32:18.528Z,97487.63
2022-12-18T00:34:48.184Z,97480.47
2022-12-18T00:37:19.996Z,97483.44
2022-12-18T00:39:50.477Z,97492.81
2022-12-18T00:42:36.374Z,97490.38
2022-12-18T00:45:10.705Z,97497.69
2022-12-18T00:47:40.955Z,97490.97
2022-12-18T00:50:11.586Z,97478.13
2022-12-18T00:52:39.844Z,97494.06
2022-12-18T00:55:08.938Z,97497.28
2022-12-18T00:57:37.221Z,97513.75
2022-12-18T01:00:07.193Z,97513.00
2022-12-18T01:02:35.622Z,97513.97
2022-12-18T01:05:04.167Z,97508.66
2022-12-18T01:07:33.745Z,97510.19
2022-12-18T01:10:02.016Z,97513.78
2022-12-18T01:12:30.245Z,97510.88
2022-12-18T01:14:58.738Z,97508.16
2022-12-18T01:17:27.069Z,97496.25
2022-12-18T01:19:55.298Z,97497.38
2022-12-18T01:22:23.539Z,97512.38
2022-12-18T01:24:53.153Z,97522.97
2022-12-18T01:27:21.421Z,97514.94
2022-12-18T01:29:49.654Z,97521.41
2022-12-18T01:32:17.948Z,97521.44
2022-12-18T01:34:46.267Z,97533.44
2022-12-18T01:37:14.642Z,97541.31
2022-12-18T01:39:43.133Z,97535.00
2022-12-18T01:42:15.811Z,97548.00
2022-12-18T01:45:03.819Z,97552.41
2022-12-18T01:47:37.923Z,97553.25
2022-12-18T01:50:10.931Z,97561.72
2022-12-18T01:52:39.558Z,97557.69
2022-12-18T01:55:09.301Z,97565.47
2022-12-18T01:57:39.492Z,97563.69
2022-12-18T02:00:11.094Z,97556.22
2022-12-18T02:02:40.181Z,97555.88
2022-12-18T02:05:09.779Z,97547.44
2022-12-18T02:07:45.596Z,97545.13
2022-12-18T02:10:18.103Z,97533.00
2022-12-18T02:12:51.950Z,97541.34
2022-12-18T02:15:25.197Z,97538.94
2022-12-18T02:17:57.476Z,97524.44
2022-12-18T02:20:30.522Z,97528.66
2022-12-18T02:23:08.865Z,97520.41
2022-12-18T02:25:58.585Z,97518.00
2022-12-18T02:28:30.871Z,97534.47
2022-12-18T02:31:01.100Z,97531.16
2022-12-18T02:33:30.162Z,97527.63
2022-12-18T02:35:59.438Z,97528.00
2022-12-18T02:38:28.024Z,97528.63
2022-12-18T02:40:58.325Z,97532.66
2022-12-18T02:43:26.643Z,97523.66
2022-12-18T02:45:57.846Z,97529.47
2022-12-18T02:48:28.740Z,97531.06
2022-12-18T02:51:02.519Z,97529.22
2022-12-18T02:53:35.813Z,97533.16
2022-12-18T02:56:09.298Z,97529.47
2022-12-18T02:58:43.265Z,97524.56
2022-12-18T03:01:14.603Z,97527.16
2022-12-18T03:03:45.909Z,97527.72
2022-12-18T03:06:19.788Z,97535.53
2022-12-18T03:08:50.742Z,97529.09
2022-12-18T03:11:40.824Z,97522.91
2022-12-18T03:14:10.024Z,97517.25
2022-12-18T03:16:38.928Z,97520.78
2022-12-18T03:19:12.375Z,97518.19
2022-12-18T03:21:44.500Z,97504.25
2022-12-18T03:24:13.450Z,97517.00
2022-12-18T03:26:46.064Z,97517.34
2022-12-18T03:29:19.204Z,97518.47
2022-12-18T03:31:50.975Z,97520.69
2022-12-18T03:34:22.414Z,97529.38
2022-12-18T03:36:50.703Z,97526.25
2022-12-18T03:39:18.967Z,97527.44
2022-12-18T03:41:53.392Z,97527.53
2022-12-18T03:44:28.517Z,97522.06
2022-12-18T03:47:01.336Z,97530.31
2022-12-18T03:49:35.692Z,97534.97
2022-12-18T03:52:07.692Z,97527.28
2022-12-18T03:54:36.726Z,97519.56
2022-12-18T03:57:09.392Z,97520.06
2022-12-18T03:59:39.091Z,97514.22
2022-12-18T04:02:09.282Z,97517.53
2022-12-18T04:04:38.361Z,97510.34
2022-12-18T04:07:06.923Z,97518.41
2022-12-18T04:09:36.227Z,97524.47
2022-12-18T04:12:06.101Z,97524.50
2022-12-18T04:14:36.587Z,97539.69
2022-12-18T04:17:04.710Z,97541.03
2022-12-18T04:19:32.840Z,97542.28
2022-12-18T04:22:01.141Z,97537.34
2022-12-18T04:24:29.346Z,97517.09
2022-12-18T04:26:57.567Z,97509.59
2022-12-18T04:29:27.245Z,97527.78
2022-12-18T04:31:55.499Z,97524.75
2022-12-18T04:34:23.781Z,97529.63
2022-12-18T04:36:52.127Z,97530.44
2022-12-18T04:39:20.451Z,97540.03
2022-12-18T04:41:48.792Z,97555.03
2022-12-18T04:44:17.034Z,97565.41
2022-12-18T04:46:47.104Z,97562.19
2022-12-18T04:49:15.498Z,97552.34
2022-12-18T04:51:43.728Z,97539.44
2022-12-18T04:54:11.972Z,97545.47
2022-12-18T04:56:40.800Z,97548.91
2022-12-18T04:59:09.031Z,97555.66
2022-12-18T05:01:37.355Z,97558.47
2022-12-18T05:04:07.395Z,97560.09
2022-12-18T05:06:35.753Z,97560.69
2022-12-18T05:09:04.035Z,97557.84
2022-12-18T05:11:32.291Z,97555.88
2022-12-18T05:14:00.543Z,97563.97
2022-12-18T05:16:28.933Z,97563.28
2022-12-18T05:18:57.342Z,97559.16
2022-12-18T05:21:26.969Z,97564.56
2022-12-18T05:23:55.210Z,97565.53
2022-12-18T05:26:23.497Z,97563.03
2022-12-18T05:28:51.747Z,97571.69
2022-12-18T05:31:20.014Z,97570.66
2022-12-18T05:33:48.386Z,97575.13
2022-12-18T05:36:16.662Z,97567.47
2022-12-18T05:38:46.320Z,97578.00
2022-12-18T05:41:14.570Z,97583.38
2022-12-18T05:43:43.235Z,97586.41
2022-12-18T05:46:15.075Z,97573.91
2022-12-18T05:48:43.572Z,97575.78
2022-12-18T05:51:13.629Z,97583.06
2022-12-18T05:53:42.315Z,97586.16
2022-12-18T05:56:14.394Z,97587.88
2022-12-18T05:58:43.018Z,97584.84
2022-12-18T06:01:13.491Z,97588.09
2022-12-18T06:03:41.890Z,97597.16
2022-12-18T06:06:17.514Z,97593.41
2022-12-18T06:08:46.709Z,97598.97
2022-12-18T06:11:19.787Z,97597.41
2022-12-18T06:13:48.446Z,97598.44
2022-12-18T06:16:16.933Z,97600.44
2022-12-18T06:18:45.312Z,97607.53
2022-12-18T06:21:13.864Z,97594.00
2022-12-18T06:23:43.076Z,97597.44
2022-12-18T06:26:12.673Z,97596.78
2022-12-18T06:28:42.362Z,97599.03
2022-12-18T06:31:11.787Z,97603.03
2022-12-18T06:33:41.060Z,97595.94
2022-12-18T06:36:12.060Z,97606.84
2022-12-18T06:38:42.474Z,97609.13
2022-12-18T06:41:11.578Z,97613.81
2022-12-18T06:43:40.188Z,97614.56
2022-12-18T06:46:10.789Z,97616.91
2022-12-18T06:48:39.081Z,97625.50
2022-12-18T06:51:07.673Z,97636.41
2022-12-18T06:53:35.967Z,97641.22
2022-12-18T06:56:09.776Z,97647.94
2022-12-18T06:58:39.201Z,97633.97
2022-12-18T07:01:11.174Z,97629.66
2022-12-18T07:03:40.535Z,97632.31
2022-12-18T07:06:15.921Z,97640.31
2022-12-18T07:08:44.209Z,97648.88
2022-12-18T07:11:12.492Z,97659.19
2022-12-18T07:13:41.068Z,97653.63
2022-12-18T07:16:18.352Z,97663.91
2022-12-18T07:18:50.764Z,97668.19
2022-12-18T07:21:21.086Z,97668.66
2022-12-18T07:23:49.589Z,97669.19
2022-12-18T07:26:19.750Z,97681.72
2022-12-18T07:28:48.135Z,97670.81
2022-12-18T07:31:19.087Z,97680.38
2022-12-18T07:33:47.791Z,97680.41
2022-12-18T07:36:16.438Z,97689.44
2022-12-18T07:38:44.994Z,97690.28
2022-12-18T07:41:14.699Z,97677.88
2022-12-18T07:43:43.981Z,97678.41
2022-12-18T07:46:14.727Z,97667.69
2022-12-18T07:48:46.260Z,97674.72
2022-12-18T07:51:18.557Z,97681.53
2022-12-18T07:53:49.702Z,97678.56
2022-12-18T07:56:30.493Z,97679.56
2022-12-18T07:59:00.410Z,97677.31
2022-12-18T08:01:29.210Z,97672.66
2022-12-18T08:03:59.530Z,97674.59
2022-12-18T08:06:27.903Z,97673.03
2022-12-18T08:08:57.178Z,97677.56
2022-12-18T08:11:27.451Z,97676.22
2022-12-18T08:13:55.961Z,97676.38
2022-12-18T08:16:24.606Z,97672.81
2022-12-18T08:18:54.070Z,97691.16
2022-12-18T08:21:27.216Z,97691.84
2022-12-18T08:23:56.682Z,97687.13
2022-12-18T08:26:25.604Z,97697.75
2022-12-18T08:28:55.213Z,97706.63
2022-12-18T08:31:23.847Z,97695.16
2022-12-18T08:33:54.487Z,97707.25
2022-12-18T08:36:25.529Z,97691.94
2022-12-18T08:38:55.083Z,97709.34
2022-12-18T08:41:23.564Z,97722.19
2022-12-18T08:44:09.747Z,97716.53
2022-12-18T08:46:39.501Z,97714.16
2022-12-18T08:49:08.647Z,97716.06
2022-12-18T08:51:38.568Z,97713.81
2022-12-18T08:54:07.254Z,97717.50
2022-12-18T08:56:35.916Z,97728.13
2022-12-18T08:59:05.267Z,97717.13
2022-12-18T09:01:33.748Z,97722.00
2022-12-18T09:04:02.961Z,97727.53
2022-12-18T09:06:31.185Z,97722.38
2022-12-18T09:09:00.796Z,97731.19
2022-12-18T09:11:31.006Z,97719.06
2022-12-18T09:14:00.282Z,97723.53
2022-12-18T09:16:32.650Z,97717.38
2022-12-18T09:19:02.375Z,97723.88
2022-12-18T09:21:32.672Z,97724.00
2022-12-18T09:24:09.083Z,97732.13
2022-12-18T09:26:37.926Z,97716.53
2022-12-18T09:29:08.124Z,97715.34
2022-12-18T09:31:38.892Z,97709.50
2022-12-18T09:34:07.143Z,97724.13
2022-12-18T09:36:35.386Z,97729.22
2022-12-18T09:39:07.883Z,97719.44
2022-12-18T09:41:45.331Z,97713.25
2022-12-18T09:44:20.062Z,97713.78
2022-12-18T09:46:54.638Z,97710.44
2022-12-18T09:49:25.835Z,97708.81
2022-12-18T09:51:56.916Z,97712.00
2022-12-18T09:54:28.423Z,97696.66
2022-12-18T09:56:58.807Z,97699.03
2022-12-18T09:59:29.362Z,97695.03
2022-12-18T10:01:58.736Z,97688.47
2022-12-18T10:04:30.429Z,97693.16
2022-12-18T10:07:08.895Z,97685.13
2022-12-18T10:09:42.123Z,97678.66
2022-12-18T10:12:16.192Z,97682.06
2022-12-18T10:14:51.776Z,97690.06
2022-12-18T10:17:26.117Z,97676.16
2022-12-18T10:19:58.984Z,97672.88
2022-12-18T10:22:42.526Z,97674.72
2022-12-18T10:25:21.225Z,97670.56
2022-12-18T10:27:53.975Z,97662.53
2022-12-18T10:30:24.200Z,97665.00
2022-12-18T10:32:52.439Z,97655.97
2022-12-18T10:35:22.972Z,97658.72
2022-12-18T10:38:08.055Z,97654.66
2022-12-18T10:40:50.707Z,97652.84
2022-12-18T10:43:25.546Z,97656.63
2022-12-18T10:46:19.195Z,97658.22
2022-12-18T10:48:54.020Z,97660.81
2022-12-18T10:51:24.333Z,97659.09
2022-12-18T10:54:00.011Z,97659.22
2022-12-18T10:56:30.338Z,97656.38
2022-12-18T10:59:03.132Z,97662.16
2022-12-18T11:01:49.019Z,97659.97
2022-12-18T11:04:20.955Z,97654.13
2022-12-18T11:06:57.226Z,97653.56
2022-12-18T11:09:26.907Z,97651.50
2022-12-18T11:11:56.519Z,97657.13
2022-12-18T11:14:27.753Z,97654.81
2022-12-18T11:17:24.172Z,97658.03
2022-12-18T11:19:45.320Z,97656.72
2022-12-18T11:22:22.378Z,97661.41
2022-12-18T11:25:29.514Z,97656.56
2022-12-18T11:27:50.146Z,97660.75
2022-12-18T11:30:26.235Z,97658.28
2022-12-18T11:32:56.572Z,97651.38
2022-12-18T11:35:32.857Z,97653.06
2022-12-18T11:38:06.589Z,97654.50
2022-12-18T11:40:41.322Z,97651.47
2022-12-18T11:43:12.949Z,97654.16
2022-12-18T11:45:45.426Z,97636.00
2022-12-18T11:48:18.333Z,97635.50
2022-12-18T11:50:51.855Z,97636.69
2022-12-18T11:53:20.748Z,97631.84
2022-12-18T11:55:56.958Z,97628.84
2022-12-18T11:58:42.190Z,97632.69
2022-12-18T12:01:18.547Z,97632.22
2022-12-18T12:04:07.749Z,97633.00
2022-12-18T12:06:40.158Z,97626.19
2022-12-18T12:09:15.075Z,97623.53
2022-12-18T12:11:52.104Z,97632.59
2022-12-18T12:14:45.015Z,97626.38
2022-12-18T12:17:21.795Z,97613.00
2022-12-18T12:19:54.969Z,97618.25
2022-12-18T12:22:28.172Z,97610.53
2022-12-18T12:25:06.333Z,97613.81
2022-12-18T12:27:42.502Z,97601.78
2022-12-18T12:30:13.253Z,97599.06
2022-12-18T12:32:55.596Z,97603.50
2022-12-18T12:35:32.474Z,97608.16
2022-12-18T12:38:07.617Z,97592.28
2022-12-18T12:40:58.798Z,97587.28
2022-12-18T12:43:32.997Z,97590.63
2022-12-18T12:46:03.239Z,97600.88
2022-12-18T12:48:38.462Z,97599.09
2022-12-18T12:51:13.507Z,97606.06
2022-12-18T12:53:42.603Z,97601.97
2022-12-18T12:56:12.547Z,97603.13
2022-12-18T12:58:49.088Z,97605.38
2022-12-18T13:01:27.280Z,97600.38
2022-12-18T13:04:04.551Z,97606.09
2022-12-18T13:06:44.739Z,97602.56
2022-12-18T13:09:13.195Z,97605.91
2022-12-18T13:12:00.828Z,97613.97
2022-12-18T13:14:31.447Z,97625.75
2022-12-18T13:17:17.768Z,97621.56
2022-12-18T13:19:51.198Z,97621.91
2022-12-18T13:22:23.694Z,97619.00
2022-12-18T13:24:52.085Z,97620.72
2022-12-18T13:27:48.723Z,97634.09
2022-12-18T13:30:45.283Z,97628.97
2022-12-18T13:36:39.264Z,97626.06
2022-12-18T13:39:35.883Z,97616.09
2022-12-18T13:42:59.017Z,97608.16
2022-12-18T13:46:01.438Z,97604.28
2022-12-18T13:48:32.779Z,97610.28
2022-12-18T13:51:04.477Z,97610.59
2022-12-18T13:53:38.525Z,97605.56
2022-12-18T13:56:07.877Z,97604.16
2022-12-18T13:58:36.895Z,97611.25
2022-12-18T14:01:05.781Z,97601.09
2022-12-18T14:03:34.281Z,97599.63
2022-12-18T14:06:05.685Z,97603.19
2022-12-18T14:08:41.674Z,97601.44
2022-12-18T14:11:21.628Z,97609.97
2022-12-18T14:13:50.666Z,97600.03
2022-12-18T14:16:20.134Z,97618.28
2022-12-18T14:18:51.247Z,97618.81
2022-12-18T14:21:22.371Z,97609.56
2022-12-18T14:24:05.472Z,97615.09
2022-12-18T14:26:34.799Z,97611.31
2022-12-18T14:29:16.771Z,97613.47
2022-12-18T14:31:46.137Z,97620.88
2022-12-18T14:34:17.696Z,97617.16
2022-12-18T14:36:54.226Z,97621.25
2022-12-18T14:39:24.898Z,97628.84
2022-12-18T14:41:54.360Z,97635.59
2022-12-18T14:44:23.552Z,97636.69
2022-12-18T14:46:52.764Z,97629.19
2022-12-18T14:49:25.690Z,97622.66
2022-12-18T14:51:55.708Z,97626.88
2022-12-18T14:54:27.110Z,97617.44
2022-12-18T14:57:00.410Z,97608.44
2022-12-18T14:59:29.312Z,97614.34
2022-12-18T15:02:04.315Z,97613.19
2022-12-18T15:04:36.353Z,97612.97
2022-12-18T15:07:13.910Z,97610.69
2022-12-18T15:09:45.523Z,97611.69
2022-12-18T15:12:27.703Z,97607.13
2022-12-18T15:14:56.121Z,97608.13
2022-12-18T15:17:25.686Z,97610.69
2022-12-18T15:20:01.173Z,97609.91
2022-12-18T15:22:31.173Z,97612.56
2022-12-18T15:25:01.400Z,97610.69
2022-12-18T15:27:32.860Z,97605.03
2022-12-18T15:30:22.494Z,97613.38
2022-12-18T15:32:52.171Z,97616.72
2022-12-18T15:35:23.165Z,97619.75
2022-12-18T15:37:52.324Z,97619.66
2022-12-18T15:40:23.648Z,97629.16
2022-12-18T15:43:24.068Z,97622.34
2022-12-18T15:45:52.459Z,97621.56
2022-12-18T15:48:23.631Z,97623.69
2022-12-18T15:50:53.020Z,97636.16
2022-12-18T15:53:21.405Z,97629.91
2022-12-18T15:56:09.943Z,97633.63
2022-12-18T15:58:43.894Z,97625.31
2022-12-18T16:01:13.170Z,97624.81
2022-12-18T16:03:45.548Z,97619.84
2022-12-18T16:06:14.241Z,97625.31
2022-12-18T16:08:43.595Z,97627.91
2022-12-18T16:11:38.696Z,97632.38
2022-12-18T16:14:08.723Z,97631.19
2022-12-18T16:16:37.292Z,97632.59
2022-12-18T16:19:05.577Z,97624.28
2022-12-18T16:21:34.177Z,97624.41
2022-12-18T16:24:02.738Z,97611.44
2022-12-18T16:26:32.423Z,97611.84
2022-12-18T16:29:00.827Z,97617.34
2022-12-18T16:31:29.258Z,97617.56
2022-12-18T16:34:14.215Z,97608.50
2022-12-18T16:36:42.521Z,97617.91
2022-12-18T16:39:10.819Z,97607.19
2022-12-18T16:41:40.550Z,97609.03
2022-12-18T16:44:08.906Z,97609.75
2022-12-18T16:46:37.227Z,97602.22
2022-12-18T16:49:05.933Z,97598.16
2022-12-18T16:51:35.442Z,97594.13
2022-12-18T16:54:07.965Z,97601.28
2022-12-18T16:56:40.063Z,97610.88
2022-12-18T16:59:10.092Z,97609.34
2022-12-18T17:01:38.558Z,97605.78
2022-12-18T17:04:07.688Z,97609.03
2022-12-18T17:06:38.181Z,97612.53
2022-12-18T17:09:08.030Z,97611.25
2022-12-18T17:11:36.898Z,97609.16
2022-12-18T17:14:09.524Z,97617.63
2022-12-18T17:16:37.867Z,97612.53
2022-12-18T17:19:12.267Z,97611.22
2022-12-18T17:21:45.392Z,97607.34
2022-12-18T17:24:13.766Z,97606.81
2022-12-18T17:26:42.301Z,97606.72
2022-12-18T17:29:14.394Z,97599.91
2022-12-18T17:31:42.971Z,97612.06
2022-12-18T17:34:11.749Z,97605.41
2022-12-18T17:36:41.513Z,97602.03
2022-12-18T17:39:10.031Z,97593.94
2022-12-18T17:41:38.289Z,97600.38
2022-12-18T17:44:07.014Z,97612.47
2022-12-18T17:46:36.801Z,97604.81
2022-12-18T17:49:05.264Z,97605.59
2022-12-18T17:51:33.917Z,97610.16
2022-12-18T17:54:02.399Z,97620.84
2022-12-18T17:56:30.889Z,97621.50
2022-12-18T17:58:59.334Z,97611.66
2022-12-18T18:01:28.277Z,97607.47
2022-12-18T18:04:00.233Z,97611.34
2022-12-18T18:06:29.095Z,97605.84
2022-12-18T18:08:58.796Z,97614.78
2022-12-18T18:11:44.872Z,97608.00
2022-12-18T18:14:15.512Z,97603.31
2022-12-18T18:16:45.519Z,97599.56
2022-12-18T18:19:17.366Z,97596.50
2022-12-18T18:21:47.534Z,97605.31
2022-12-18T18:24:17.100Z,97593.06
2022-12-18T18:26:46.660Z,97587.91
2022-12-18T18:29:17.159Z,97584.78
2022-12-18T18:31:45.367Z,97591.81
2022-12-18T18:34:18.239Z,97593.06
2022-12-18T18:36:46.856Z,97595.09
2022-12-18T18:39:15.897Z,97592.09
2022-12-18T18:41:48.250Z,97591.81
2022-12-18T18:44:17.405Z,97583.38
2022-12-18T18:46:45.918Z,97586.34
2022-12-18T18:49:14.870Z,97591.34
2022-12-18T18:51:44.625Z,97589.22
2022-12-18T18:54:13.042Z,97581.09
2022-12-18T18:57:11.643Z,97586.13
2022-12-18T18:59:32.032Z,97590.56
2022-12-18T19:02:04.042Z,97581.28
2022-12-18T19:04:33.696Z,97575.50
2022-12-18T19:07:04.102Z,97572.22
2022-12-18T19:09:32.408Z,97575.59
2022-12-18T19:12:17.846Z,97560.94
2022-12-18T19:14:46.215Z,97566.91
2022-12-18T19:17:14.521Z,97566.13
2022-12-18T19:19:43.542Z,97561.50
2022-12-18T19:22:14.094Z,97576.50
2022-12-18T19:24:42.246Z,97573.00
2022-12-18T19:27:11.037Z,97581.00
2022-12-18T19:29:39.737Z,97576.78
2022-12-18T19:32:08.160Z,97576.81
2022-12-18T19:34:36.387Z,97558.03
2022-12-18T19:37:05.186Z,97565.84
2022-12-18T19:39:34.968Z,97569.25
2022-12-18T19:42:03.243Z,97557.91
2022-12-18T19:44:31.662Z,97555.47
2022-12-18T19:46:59.871Z,97549.41
2022-12-18T19:49:28.542Z,97549.41
2022-12-18T19:51:56.791Z,97554.53
2022-12-18T19:54:25.749Z,97558.75
2022-12-18T19:56:56.157Z,97557.22
2022-12-18T19:59:24.419Z,97566.91
2022-12-18T20:01:54.265Z,97568.25
2022-12-18T20:04:22.725Z,97567.59
2022-12-18T20:06:52.302Z,97566.97
2022-12-18T20:09:21.350Z,97573.63
2022-12-18T20:11:50.128Z,97564.88
2022-12-18T20:14:23.589Z,97565.94
2022-12-18T20:16:52.796Z,97552.28
2022-12-18T20:19:21.992Z,97549.88
2022-12-18T20:21:50.980Z,97545.50
2022-12-18T20:24:19.262Z,97544.28
2022-12-18T20:26:47.517Z,97536.78
2022-12-18T20:29:15.736Z,97535.66
2022-12-18T20:31:45.421Z,97538.94
2022-12-18T20:34:13.712Z,97528.44
2022-12-18T20:36:42.200Z,97527.53
2022-12-18T20:39:12.211Z,97523.38
2022-12-18T20:41:41.711Z,97527.25
2022-12-18T20:44:22.662Z,97523.13
2022-12-18T20:46:55.529Z,97524.19
2022-12-18T20:49:24.303Z,97526.50
2022-12-18T20:51:53.719Z,97529.31
2022-12-18T20:54:22.618Z,97530.50
2022-12-18T20:56:51.718Z,97525.22
2022-12-18T20:59:20.521Z,97528.69
2022-12-18T21:01:49.442Z,97531.75
2022-12-18T21:04:19.947Z,97519.94
2022-12-18T21:06:52.358Z,97526.88
2022-12-18T21:09:22.675Z,97530.47
2022-12-18T21:12:08.754Z,97525.59
2022-12-18T21:14:39.353Z,97522.34
2022-12-18T21:17:07.600Z,97518.00
2022-12-18T21:19:37.635Z,97527.47
2022-12-18T21:22:06.168Z,97533.72
2022-12-18T21:24:34.337Z,97533.69
2022-12-18T21:27:02.695Z,97535.94
2022-12-18T21:29:31.228Z,97532.91
2022-12-18T21:31:59.504Z,97527.56
2022-12-18T21:34:29.543Z,97520.44
2022-12-18T21:37:01.160Z,97508.81
2022-12-18T21:39:30.644Z,97502.00
2022-12-18T21:42:16.512Z,97505.47
2022-12-18T21:44:45.274Z,97493.91
2022-12-18T21:47:20.834Z,97492.47
2022-12-18T21:49:49.907Z,97490.97
2022-12-18T21:52:20.260Z,97501.53
2022-12-18T21:54:52.011Z,97497.38
2022-12-18T21:57:20.278Z,97487.91
2022-12-18T21:59:48.849Z,97491.66
2022-12-18T22:02:19.559Z,97499.66
2022-12-18T22:04:48.705Z,97496.09
2022-12-18T22:07:18.954Z,97489.16
2022-12-18T22:09:48.375Z,97485.44
2022-12-18T22:12:35.362Z,97503.50
2022-12-18T22:15:04.832Z,97520.38
2022-12-18T22:17:33.253Z,97532.66
2022-12-18T22:20:01.580Z,97532.47
2022-12-18T22:22:31.320Z,97528.78
2022-12-18T22:24:59.634Z,97521.44
2022-12-18T22:27:27.886Z,97524.59
2022-12-18T22:30:04.256Z,97525.66
2022-12-18T22:32:33.152Z,97514.50
2022-12-18T22:35:06.872Z,97510.03
2022-12-18T22:37:37.859Z,97507.34
2022-12-18T22:40:07.605Z,97499.44
2022-12-18T22:42:36.875Z,97504.81
2022-12-18T22:45:05.745Z,97516.94
2022-12-18T22:47:33.955Z,97510.69
2022-12-18T22:50:02.229Z,97495.16
2022-12-18T22:52:30.450Z,97483.38
2022-12-18T22:55:00.079Z,97479.81
2022-12-18T22:57:29.562Z,97468.66
2022-12-18T22:59:57.818Z,97475.53
2022-12-18T23:02:26.282Z,97474.38
2022-12-18T23:04:54.655Z,97481.81
2022-12-18T23:07:22.938Z,97482.94
2022-12-18T23:09:51.466Z,97474.38
2022-12-18T23:12:29.331Z,97471.09
2022-12-18T23:14:57.685Z,97470.66
2022-12-18T23:17:25.966Z,97464.28
2022-12-18T23:19:54.184Z,97465.88
2022-12-18T23:22:22.490Z,97442.47
2022-12-18T23:24:50.723Z,97454.38
2022-12-18T23:27:18.935Z,97445.75
2022-12-18T23:29:48.547Z,97442.41
2022-12-18T23:32:17.500Z,97433.41
2022-12-18T23:34:45.683Z,97438.16
2022-12-18T23:37:25.028Z,97438.91
2022-12-18T23:40:02.316Z,97443.22
2022-12-18T23:42:30.509Z,97439.78
2022-12-18T23:45:00.159Z,97437.22
2022-12-18T23:47:32.070Z,97435.53
2022-12-18T23:50:00.353Z,97428.88
2022-12-18T23:52:29.009Z,97419.97
2022-12-18T23:54:57.288Z,97423.09
2022-12-18T23:57:25.575Z,97423.75
2022-12-18T23:59:55.120Z,97425.84
